Time;durP1;ratioP1;P1;durP2;ratioP2;P2;SDS_P1;SDS_P2;PMS_P1;PMS_P2;Temp;Humidity;BMP_temperature;BMP_pressure;BME280_temperature;BME280_humidity;BME280_pressure;Samples;Min_cycle;Max_cycle;Signal;HPM_P1;HPM_P2
2022/05/16 00:00:14;;;;;;;;;;;;;;;12.45;87.59;98020.03;10249934;28;20069;-57
2022/05/16 00:05:14;;;;;;;24.23;18.27;;;;;;;12.34;87.81;97995.78;10250955;28;19956;-57
2022/05/16 00:10:13;;;;;;;26.50;17.42;;;;;;;12.38;87.88;98012.25;10256549;28;20061;-57
2022/05/16 00:15:16;;;;;;;24.10;17.25;;;;;;;12.28;87.41;97996.69;10258163;28;20057;-57
2022/05/16 00:20:15;;;;;;;23.50;17.52;;;;;;;12.27;87.87;98005.38;10256901;28;20065;-57
2022/05/16 00:25:18;;;;;;;25.75;18.02;;;;;;;12.23;87.52;98000.16;10257399;28;20073;-57
2022/05/16 00:30:19;;;;;;;25.63;17.65;;;;;;;12.19;87.95;97990.63;10256003;28;20080;-57
2022/05/16 00:35:20;;;;;;;26.27;19.05;;;;;;;12.16;87.77;97991.50;10253050;28;20057;-57
2022/05/16 00:40:20;;;;;;;23.40;17.30;;;;;;;11.99;88.37;97993.28;10256183;28;20046;-57
2022/05/16 00:45:19;;;;;;;24.98;17.55;;;;;;;11.97;88.60;97995.91;10257337;28;20062;-57
2022/05/16 00:50:18;;;;;;;22.42;16.70;;;;;;;11.95;88.23;97997.63;10255661;28;20037;-57
2022/05/16 00:55:37;;;;;;;24.90;17.27;;;;;;;11.87;88.41;97989.81;10255307;28;20088;-57
2022/05/16 01:00:38;;;;;;;23.80;17.20;;;;;;;11.83;88.38;97988.13;10255382;28;20050;-57
2022/05/16 01:05:38;;;;;;;24.58;17.15;;;;;;;11.70;88.55;97985.56;10255127;28;20077;-57
2022/05/16 01:10:38;;;;;;;26.60;16.83;;;;;;;11.60;89.16;97987.31;10253828;28;20074;-57
2022/05/16 01:15:48;;;;;;;25.10;17.33;;;;;;;11.46;90.03;97985.59;10252077;28;20069;-57
2022/05/16 01:21:09;;;;;;;26.15;18.00;;;;;;;11.37;89.79;97988.19;10254885;28;20061;-57
2022/05/16 01:26:13;;;;;;;25.83;18.85;;;;;;;11.34;89.98;97987.31;10254414;28;20061;-56
2022/05/16 01:31:12;;;;;;;23.73;16.80;;;;;;;11.16;89.81;97972.59;10256402;28;20085;-57
2022/05/16 01:36:11;;;;;;;;;;;;;;;11.17;90.10;97984.72;10256020;28;20066;-57
2022/05/16 01:41:13;;;;;;;24.42;16.85;;;;;;;11.11;90.43;97990.78;10255947;28;19953;-57
2022/05/16 01:46:16;;;;;;;23.05;17.02;;;;;;;11.04;90.53;97983.84;10255684;28;20133;-57
2022/05/16 01:51:15;;;;;;;24.15;16.88;;;;;;;10.97;90.64;97979.53;10253841;28;20062;-57
2022/05/16 01:56:15;;;;;;;24.45;17.20;;;;;;;10.90;90.08;97981.25;10255586;28;20046;-57
2022/05/16 02:01:14;;;;;;;;;;;;;;;10.87;90.16;97980.31;10250781;28;20068;-57
2022/05/16 02:06:13;;;;;;;23.47;16.63;;;;;;;10.83;89.78;97989.84;10255253;28;19952;-57
2022/05/16 02:11:12;;;;;;;;;;;;;;;10.79;89.54;97990.69;10253361;28;20069;-57
2022/05/16 02:16:11;;;;;;;22.60;16.02;;;;;;;10.75;89.63;97992.44;10254475;28;19909;-57
2022/05/16 02:26:28;;;;;;;25.00;17.00;;;;;;;10.67;89.91;97982.91;10254755;28;20070;-57
2022/05/16 02:31:27;;;;;;;;;;;;;;;10.63;89.58;97992.38;10253328;28;20078;-58
2022/05/16 02:36:26;;;;;;;24.15;17.52;;;;;;;10.57;90.01;97998.44;10252106;28;19920;-58
2022/05/16 02:41:25;;;;;;;29.63;18.33;;;;;;;10.53;89.68;97996.69;10249277;28;20058;-58
2022/05/16 02:46:24;;;;;;;31.35;19.70;;;;;;;10.50;90.11;97996.69;10253399;28;20117;-58
2022/05/16 02:51:24;;;;;;;29.10;19.65;;;;;;;10.49;89.45;97991.50;10251857;28;20046;-58
2022/05/16 02:56:23;;;;;;;26.73;18.20;;;;;;;10.39;90.08;97999.25;10253234;28;20470;-58
2022/05/16 03:01:22;;;;;;;31.30;20.70;;;;;;;10.33;91.40;98012.22;10251664;28;20445;-58
2022/05/16 03:06:22;;;;;;;;;;;;;;;10.20;91.88;98013.88;10253114;28;20066;-58
2022/05/16 03:11:22;;;;;;;24.73;17.27;;;;;;;10.16;92.33;98014.69;10246532;28;20044;-58
2022/05/16 03:16:21;;;;;;;31.27;20.10;;;;;;;10.20;91.74;98019.06;10252721;28;20073;-58
2022/05/16 03:21:20;;;;;;;31.52;18.55;;;;;;;10.19;91.63;98013.84;10251889;28;20038;-58
2022/05/16 03:26:19;;;;;;;29.02;19.05;;;;;;;10.19;91.90;98006.97;10249632;28;20486;-58
2022/05/16 03:31:19;;;;;;;28.65;18.80;;;;;;;10.24;92.00;97996.59;10250319;28;20049;-58
2022/05/16 03:36:18;;;;;;;32.20;19.67;;;;;;;10.16;91.79;97999.13;10252893;28;20074;-58
2022/05/16 03:41:17;;;;;;;30.15;19.33;;;;;;;10.34;91.84;98005.28;10250963;28;20057;-58
2022/05/16 03:46:16;;;;;;;30.63;19.58;;;;;;;10.39;91.28;97995.78;10251602;28;20060;-57
2022/05/16 03:51:15;;;;;;;29.38;20.20;;;;;;;10.46;91.88;97991.50;10250763;28;20073;-57
2022/05/16 03:56:23;;;;;;;31.15;20.40;;;;;;;10.69;91.58;98018.38;10251834;28;20539;-58
2022/05/16 04:01:23;;;;;;;32.47;20.40;;;;;;;10.80;91.86;98015.81;10249911;28;20065;-57
2022/05/16 04:06:22;;;;;;;30.27;18.75;;;;;;;10.88;91.01;98021.91;10247127;28;20066;-58
2022/05/16 04:11:21;;;;;;;23.67;16.70;;;;;;;10.74;90.41;98032.22;10250421;28;20061;-57
2022/05/16 04:16:20;;;;;;;22.45;16.92;;;;;;;10.75;89.85;98033.09;10250918;28;20454;-58
2022/05/16 04:21:19;;;;;;;21.38;15.57;;;;;;;10.61;88.86;98046.00;10251548;28;20577;-57
2022/05/16 04:26:18;;;;;;;21.23;15.02;;;;;;;10.40;88.64;98047.69;10250665;28;20030;-58
2022/05/16 04:31:17;;;;;;;20.83;15.15;;;;;;;10.32;89.50;98046.78;10276722;28;20115;-58
2022/05/16 04:36:16;;;;;;;20.42;14.70;;;;;;;10.41;90.10;98053.72;10332289;28;20049;-58
2022/05/16 04:46:33;;;;;;;20.65;15.48;;;;;;;10.55;89.25;98017.47;10330083;28;20064;-58
2022/05/16 04:51:32;;;;;;;;;;;;;;;10.97;89.57;98055.69;10329893;28;20049;-58
2022/05/16 04:56:32;;;;;;;23.53;15.90;;;;;;;11.21;90.01;98057.44;10336932;28;19951;-58
2022/05/16 05:01:30;;;;;;;25.55;17.75;;;;;;;11.48;89.28;98062.66;10334480;28;20315;-58
2022/05/16 05:06:30;;;;;;;27.40;20.48;;;;;;;11.65;89.02;98055.75;10331485;28;20021;-57
2022/05/16 05:16:46;;;;;;;45.63;34.50;;;;;;;12.11;89.23;98071.31;10325496;28;20812;-58
2022/05/16 05:21:45;;;;;;;45.13;34.13;;;;;;;12.39;88.56;98074.72;10337367;28;20069;-57
2022/05/16 05:26:46;;;;;;;33.45;25.58;;;;;;;12.52;87.96;98067.72;10326263;28;20062;-58
2022/05/16 05:31:46;;;;;;;27.58;21.73;;;;;;;12.84;87.79;98074.53;10303194;28;20501;-57
2022/05/16 05:36:45;;;;;;;29.55;20.80;;;;;;;13.14;87.45;98063.94;10335152;28;20072;-58
2022/05/16 05:41:44;;;;;;;26.45;20.23;;;;;;;13.50;86.95;98067.16;10334665;28;20045;-58
2022/05/16 05:46:43;;;;;;;22.00;17.95;;;;;;;13.84;86.51;98072.13;10336655;28;20021;-58
2022/05/16 05:51:43;;;;;;;22.38;18.35;;;;;;;14.18;85.03;98074.41;10333314;28;20042;-57
2022/05/16 05:56:42;;;;;;;21.52;15.57;;;;;;;14.35;82.96;98066.41;10336067;28;20063;-57
2022/05/16 06:01:41;;;;;;;17.25;15.00;;;;;;;14.49;81.37;98066.25;10333769;28;20021;-57
2022/05/16 06:06:40;;;;;;;18.45;14.32;;;;;;;14.76;81.52;98065.94;10318321;28;20033;-57
2022/05/16 06:11:39;;;;;;;17.27;14.50;;;;;;;15.10;81.33;98062.00;10335206;28;20069;-57
2022/05/16 06:16:38;;;;;;;;;;;;;;;15.42;79.89;98072.00;10333048;28;20509;-57
2022/05/16 06:21:38;;;;;;;16.88;12.65;;;;;;;15.61;77.91;98052.50;10334283;28;20049;-57
2022/05/16 06:26:37;;;;;;;19.13;13.15;;;;;;;15.90;76.23;98074.72;10336026;28;20068;-57
2022/05/16 06:31:35;;;;;;;;;;;;;;;16.15;76.57;98054.22;10334805;28;20045;-57
2022/05/16 06:36:34;;;;;;;14.90;11.73;;;;;;;16.40;74.96;98064.22;10334840;28;19913;-57
2022/05/16 06:41:34;;;;;;;;;;;;;;;16.60;73.62;98066.44;10332204;28;20037;-57
2022/05/16 06:46:33;;;;;;;13.32;11.48;;;;;;;16.83;71.82;98059.00;10334370;28;20361;-57
2022/05/16 06:51:32;;;;;;;12.77;11.25;;;;;;;17.05;71.78;98061.16;10327199;28;20069;-57
2022/05/16 06:56:31;;;;;;;;;;;;;;;17.24;70.68;98058.97;10331436;28;20045;-57
2022/05/16 07:01:30;;;;;;;16.73;12.17;;;;;;;17.51;70.20;98053.09;10331916;28;20450;-57
2022/05/16 07:06:29;;;;;;;14.88;10.25;;;;;;;17.75;67.10;98029.75;10334023;28;20068;-57
2022/05/16 07:11:29;;;;;;;12.73;10.77;;;;;;;18.06;66.66;98050.00;10329924;28;20128;-57
2022/05/16 07:16:29;;;;;;;14.63;9.82;;;;;;;18.24;65.29;98040.75;10331949;28;20057;-57
2022/05/16 07:21:28;;;;;;;13.75;10.00;;;;;;;18.54;65.02;98039.91;10332337;28;20507;-58
2022/05/16 07:31:46;;;;;;;10.43;8.80;;;;;;;19.01;63.17;98035.03;10332626;28;20072;-57
2022/05/16 07:36:45;;;;;;;11.95;9.55;;;;;;;19.34;63.32;98029.63;10332307;28;21672;-58
2022/05/16 07:41:44;;;;;;;12.05;9.20;;;;;;;19.63;61.88;98035.78;10323032;28;20539;-58
2022/05/16 07:46:43;;;;;;;10.95;8.00;;;;;;;19.96;57.46;98032.94;10330924;28;20473;-58
2022/05/16 07:51:42;;;;;;;8.73;7.15;;;;;;;20.21;57.19;98023.25;10330490;28;20485;-57
2022/05/16 07:56:41;;;;;;;9.07;7.55;;;;;;;20.36;55.88;98015.72;10330635;28;20120;-57
2022/05/16 08:01:40;;;;;;;9.38;7.30;;;;;;;20.63;54.93;98019.13;10353812;28;20032;-58
2022/05/16 08:06:39;;;;;;;9.20;8.05;;;;;;;21.00;55.71;98008.03;10296026;28;20838;-58
2022/05/16 08:11:37;;;;;;;9.50;6.72;;;;;;;21.26;53.92;98014.06;10327275;28;20442;-58
2022/05/16 08:16:37;;;;;;;8.82;6.65;;;;;;;21.61;51.35;98019.72;10315563;28;20459;-58
2022/05/16 08:21:36;;;;;;;10.18;6.38;;;;;;;21.72;47.94;98012.19;10327967;28;20049;-58
2022/05/16 08:26:36;;;;;;;8.05;6.15;;;;;;;21.91;46.78;98010.50;10325215;28;20124;-58
2022/05/16 08:31:35;;;;;;;4.82;3.63;;;;;;;22.09;39.67;98015.97;10330273;28;20073;-58
2022/05/16 08:42:12;;;;;;;5.40;2.55;;;;;;;22.45;32.70;98002.03;10334054;28;20572;-58
2022/05/16 08:47:14;;;;;;;5.32;2.70;;;;;;;22.61;32.43;98003.03;10333243;28;20069;-58
2022/05/16 08:52:19;;;;;;;5.03;3.20;;;;;;;22.78;35.08;98008.44;10338125;28;20072;-58
2022/05/16 08:57:28;;;;;;;4.97;3.13;;;;;;;22.83;34.03;97996.78;10338392;28;20045;-58
2022/05/16 09:02:29;;;;;;;;;;;;;;;22.92;35.46;97999.00;10335966;28;20065;-58
2022/05/16 09:07:41;;;;;;;5.03;3.78;;;;;;;23.04;34.43;97993.13;10327246;28;19960;-58
2022/05/16 09:12:49;;;;;;;5.93;4.47;;;;;;;23.10;33.95;97978.75;10338145;28;20084;-58
2022/05/16 09:18:17;;;;;;;5.03;3.80;;;;;;;23.36;33.23;97993.38;10337733;28;20496;-58
2022/05/16 09:23:38;;;;;;;6.28;3.53;;;;;;;23.60;33.11;97983.38;10333689;28;20065;-58
2022/05/16 09:28:45;;;;;;;7.25;3.28;;;;;;;23.64;32.94;97977.84;10334975;28;20073;-58
2022/05/16 09:33:51;;;;;;;5.55;3.50;;;;;;;23.76;33.35;97978.16;10336352;28;20529;-58
2022/05/16 09:38:51;;;;;;;4.47;3.28;;;;;;;23.67;33.02;97973.31;10336896;28;20452;-58
2022/05/16 09:44:02;;;;;;;5.32;3.25;;;;;;;23.72;33.36;97960.69;10336745;28;20064;-58
2022/05/16 09:49:03;;;;;;;5.68;3.50;;;;;;;23.89;31.66;97955.41;10332652;28;20056;-58
2022/05/16 09:54:13;;;;;;;4.15;3.30;;;;;;;23.80;32.88;97958.53;10330220;28;20869;-58
2022/05/16 09:59:13;;;;;;;7.05;3.30;;;;;;;24.03;32.53;97949.38;10336718;28;20053;-58
2022/05/16 10:04:16;;;;;;;4.57;3.22;;;;;;;24.25;32.67;97939.38;10335062;28;20057;-58
2022/05/16 10:09:24;;;;;;;6.13;3.20;;;;;;;24.27;32.80;97926.03;10336117;28;20456;-58
2022/05/16 10:14:23;;;;;;;;;;;;;;;24.52;33.04;97925.56;10337174;28;20076;-58
2022/05/16 10:19:26;;;;;;;5.85;3.22;;;;;;;24.62;33.07;97921.44;10334394;28;19913;-58
2022/05/16 10:24:31;;;;;;;4.72;3.05;;;;;;;24.79;32.75;97907.22;10333891;28;20061;-58
2022/05/16 10:29:36;;;;;;;6.13;3.30;;;;;;;24.89;31.37;97916.44;10332229;28;20079;-58
2022/05/16 10:34:43;;;;;;;7.15;3.17;;;;;;;24.90;31.44;97904.88;10333497;28;20082;-58
2022/05/16 10:39:49;;;;;;;4.20;3.10;;;;;;;24.92;31.84;97890.63;10331251;28;20073;-58
2022/05/16 10:44:55;;;;;;;4.75;3.40;;;;;;;24.88;31.53;97903.25;10332622;28;20505;-58
2022/05/16 10:50:09;;;;;;;6.50;3.80;;;;;;;25.06;31.66;97898.69;10296452;28;20073;-58
2022/05/16 10:55:08;;;;;;;4.10;3.00;;;;;;;25.04;30.44;97879.34;10326137;28;20074;-58
2022/05/16 11:00:14;;;;;;;5.07;3.30;;;;;;;25.30;32.33;97875.16;10333490;28;20093;-58
2022/05/16 11:05:13;;;;;;;5.15;2.97;;;;;;;25.50;30.65;97881.94;10335184;28;20069;-58
2022/05/16 11:10:28;;;;;;;6.82;3.75;;;;;;;25.37;30.77;97880.97;10333043;28;20032;-58
2022/05/16 11:15:34;;;;;;;5.28;3.40;;;;;;;25.10;30.24;97855.06;10334248;28;20065;-58
2022/05/16 11:21:01;;;;;;;4.80;3.03;;;;;;;25.30;29.68;97880.47;10332802;28;20065;-58
2022/05/16 11:26:16;;;;;;;5.63;3.97;;;;;;;25.36;30.38;97866.81;10311601;28;20077;-58
2022/05/16 11:31:20;;;;;;;5.10;3.00;;;;;;;25.52;30.76;97874.72;10292427;28;20084;-58
2022/05/16 11:36:33;;;;;;;5.20;3.20;;;;;;;25.47;30.10;97871.50;10328453;28;20524;-58
2022/05/16 11:41:40;;;;;;;4.80;3.05;;;;;;;25.45;30.00;97862.75;10332173;28;20069;-58
2022/05/16 11:47:29;;;;;;;7.32;3.50;;;;;;;25.67;29.95;97857.91;10332446;28;20929;-58
2022/05/16 11:52:40;;;;;;;4.97;3.17;;;;;;;25.69;29.77;97855.13;10330730;28;20073;-58
2022/05/16 12:03:05;;;;;;;6.28;3.20;;;;;;;25.91;29.71;97842.25;10331651;28;20060;-58
2022/05/16 12:08:24;;;;;;;5.38;3.38;;;;;;;26.23;30.14;97839.41;10330489;28;20065;-58
2022/05/16 12:13:34;;;;;;;4.93;3.00;;;;;;;26.37;29.25;97830.56;10330021;28;20120;-58
2022/05/16 12:18:34;;;;;;;4.65;2.88;;;;;;;26.44;28.93;97821.22;10331474;28;20069;-58
2022/05/16 12:23:51;;;;;;;6.60;3.03;;;;;;;26.27;28.80;97816.13;10315323;28;20060;-58
2022/05/16 12:29:08;;;;;;;5.55;3.25;;;;;;;26.21;29.22;97813.88;10331558;28;20061;-58
2022/05/16 12:34:07;;;;;;;4.38;2.95;;;;;;;26.22;29.06;97804.91;10329266;28;20465;-58
2022/05/16 12:39:37;;;;;;;5.60;3.10;;;;;;;26.33;29.13;97802.44;10317221;28;20393;-58
2022/05/16 12:44:56;;;;;;;4.85;2.80;;;;;;;26.46;28.36;97781.19;10330702;28;20489;-58
2022/05/16 12:50:05;;;;;;;5.07;2.83;;;;;;;26.67;28.55;97781.59;10330971;28;20069;-58
2022/05/16 12:55:35;;;;;;;8.52;3.33;;;;;;;26.88;29.06;97779.34;10331086;28;20076;-58
2022/05/16 13:00:52;;;;;;;4.70;2.92;;;;;;;26.55;27.92;97754.81;10330628;28;20121;-58
2022/05/16 13:06:03;;;;;;;4.78;2.72;;;;;;;26.65;27.84;97767.53;10318602;28;20493;-57
2022/05/16 13:11:23;;;;;;;5.07;3.15;;;;;;;26.78;29.11;97765.75;10321269;28;20099;-57
2022/05/16 13:16:29;;;;;;;3.75;2.83;;;;;;;26.55;29.12;97775.25;10337235;28;20068;-57
2022/05/16 13:21:42;;;;;;;6.68;3.08;;;;;;;26.37;29.17;97761.38;10328802;28;20077;-57
2022/05/16 13:32:12;;;;;;;5.32;3.05;;;;;;;26.54;28.87;97760.25;10335573;28;20081;-57
2022/05/16 13:37:12;;;;;;;3.47;2.90;;;;;;;26.49;29.30;97771.22;10336701;28;20508;-57
2022/05/16 13:42:11;;;;;;;5.85;3.28;;;;;;;26.44;28.29;97765.34;10332980;28;20135;-57
2022/05/16 13:47:14;;;;;;;4.78;2.90;;;;;;;26.81;28.66;97754.88;10334738;28;20056;-57
2022/05/16 13:52:19;;;;;;;4.47;2.83;;;;;;;26.87;28.71;97764.34;10335001;28;20460;-57
2022/05/16 13:57:23;;;;;;;4.95;2.80;;;;;;;26.83;28.39;97755.69;10305378;28;20489;-57
2022/05/16 14:02:25;;;;;;;5.22;2.88;;;;;;;26.60;28.65;97764.31;10336855;28;20072;-57
2022/05/16 14:07:33;;;;;;;6.07;2.90;;;;;;;26.78;28.43;97760.44;10332030;28;20513;-57
2022/05/16 14:12:41;;;;;;;5.53;3.10;;;;;;;26.66;28.32;97761.25;10333490;28;20077;-57
2022/05/16 14:17:42;;;;;;;6.20;3.25;;;;;;;26.38;29.11;97759.56;10320102;28;20053;-57
2022/05/16 14:22:51;;;;;;;5.43;3.20;;;;;;;26.24;29.65;97766.63;10331288;28;20057;-57
2022/05/16 14:28:15;;;;;;;3.97;3.03;;;;;;;26.37;29.31;97756.06;10319627;28;20485;-57
2022/05/16 14:33:15;;;;;;;3.45;2.50;;;;;;;26.36;28.59;97759.66;10331465;28;20109;-57
2022/05/16 14:38:15;;;;;;;3.15;2.70;;;;;;;26.35;28.33;97761.47;10332654;28;20069;-57
2022/05/16 14:43:33;;;;;;;4.15;3.10;;;;;;;26.18;28.60;97761.66;10327122;28;20460;-57
2022/05/16 14:48:31;;;;;;;3.95;2.40;;;;;;;26.04;29.01;97759.03;10330340;28;20072;-57
2022/05/16 14:53:30;;;;;;;6.57;2.70;;;;;;;26.10;28.82;97764.81;10333198;28;20048;-57
2022/05/16 14:58:29;;;;;;;5.60;2.95;;;;;;;26.05;27.54;97758.94;10332886;28;20032;-57
2022/05/16 15:08:53;;;;;;;6.20;2.90;;;;;;;26.05;28.36;97750.97;10312558;28;20532;-57
2022/05/16 15:13:52;;;;;;;6.68;3.00;;;;;;;26.00;28.04;97750.41;10320472;28;20068;-57
2022/05/16 15:18:53;;;;;;;5.22;2.78;;;;;;;25.90;28.10;97755.47;10331680;28;20175;-57
2022/05/16 15:23:52;;;;;;;4.97;2.72;;;;;;;25.84;27.74;97749.69;10331587;28;20076;-57
2022/05/16 15:28:51;;;;;;;5.25;2.67;;;;;;;25.85;28.24;97751.38;10328961;28;20080;-57
2022/05/16 15:33:50;;;;;;;5.40;2.78;;;;;;;25.87;28.19;97742.34;10330522;28;20073;-57
2022/05/16 15:38:49;;;;;;;5.55;2.58;;;;;;;25.83;28.79;97739.97;10331942;28;20032;-57
2022/05/16 15:43:48;;;;;;;6.22;3.38;;;;;;;25.80;28.41;97738.38;10331880;28;20521;-57
2022/05/16 15:48:47;;;;;;;6.65;2.80;;;;;;;25.66;28.03;97743.69;10323209;28;20180;-57
2022/05/16 15:53:49;;;;;;;5.13;2.70;;;;;;;25.57;27.56;97752.25;10318203;28;20841;-57
2022/05/16 15:58:49;;;;;;;3.15;2.65;;;;;;;25.50;27.92;97744.63;10328557;28;20080;-57
2022/05/16 16:09:08;;;;;;;4.55;2.58;;;;;;;25.53;27.91;97744.44;10313415;28;20093;-57
2022/05/16 16:14:07;;;;;;;3.45;2.60;;;;;;;25.38;27.46;97740.06;10324963;28;20505;-57
2022/05/16 16:19:07;;;;;;;7.13;3.15;;;;;;;25.44;27.94;97742.34;10319795;28;20103;-57
2022/05/16 16:24:07;;;;;;;5.57;2.80;;;;;;;25.39;28.19;97736.47;10319802;28;20084;-57
2022/05/16 16:29:08;;;;;;;6.95;2.42;;;;;;;25.32;28.35;97725.38;10326891;28;20079;-57
2022/05/16 16:34:09;;;;;;;10.25;2.88;;;;;;;25.08;28.81;97695.84;10330929;28;20793;-57
2022/05/16 16:39:12;;;;;;;5.45;2.72;;;;;;;25.19;29.39;97729.72;10316442;28;20068;-57
2022/05/16 16:44:13;;;;;;;5.60;2.88;;;;;;;24.89;28.86;97725.31;10329460;28;20840;-57
2022/05/16 16:49:12;;;;;;;5.25;3.13;;;;;;;24.68;29.09;97723.88;10332964;28;20494;-57
2022/05/16 16:59:40;;;;;;;4.72;2.70;;;;;;;24.38;29.77;97732.69;10318708;28;20072;-57
2022/05/16 17:04:39;;;;;;;5.47;2.90;;;;;;;24.21;29.94;97741.59;10335488;28;20528;-57
2022/05/16 17:09:38;;;;;;;5.22;2.50;;;;;;;23.94;30.80;97732.53;10323248;28;20483;-57
2022/05/16 17:14:37;;;;;;;8.18;3.00;;;;;;;23.77;30.84;97747.56;10335155;28;20876;-57
2022/05/16 17:19:36;;;;;;;5.50;3.33;;;;;;;23.67;31.27;97756.06;10324756;28;20120;-57
2022/05/16 17:24:35;;;;;;;10.95;4.05;;;;;;;23.41;33.40;97764.44;10334703;28;20060;-57
2022/05/16 17:29:34;;;;;;;11.35;4.82;;;;;;;23.11;34.95;97764.25;10345431;28;20045;-57
2022/05/16 17:34:33;;;;;;;7.82;3.78;;;;;;;22.80;36.21;97771.09;10352770;28;20025;-57
2022/05/16 17:39:32;;;;;;;8.52;4.72;;;;;;;22.50;36.77;97781.38;10344692;28;20131;-57
2022/05/16 17:44:31;;;;;;;9.43;4.32;;;;;;;22.17;37.05;97786.50;10354966;28;20017;-57
2022/05/16 17:49:32;;;;;;;8.02;4.28;;;;;;;21.86;37.79;97789.72;10335262;28;20081;-59
2022/05/16 17:54:39;;;;;;;7.78;4.55;;;;;;;21.41;38.15;97780.31;10329613;28;20077;-57
2022/05/16 17:59:38;;;;;;;10.07;4.15;;;;;;;21.20;38.65;97798.75;10321941;28;20068;-57
2022/05/16 18:04:37;;;;;;;9.35;3.90;;;;;;;20.87;39.40;97814.25;10335547;28;20064;-57
2022/05/16 18:09:36;;;;;;;7.35;3.45;;;;;;;20.56;39.78;97811.97;10333717;28;20037;-57
2022/05/16 18:14:35;;;;;;;6.28;3.35;;;;;;;20.26;40.31;97815.75;10330487;28;20029;-58
2022/05/16 18:19:36;;;;;;;6.63;3.67;;;;;;;19.97;41.54;97835.31;10326796;28;20052;-57
2022/05/16 18:24:35;;;;;;;8.93;4.20;;;;;;;19.68;42.46;97839.03;10333953;28;20065;-57
2022/05/16 18:29:34;;;;;;;7.03;3.90;;;;;;;19.37;42.95;97853.25;10318022;28;20081;-56
2022/05/16 18:34:33;;;;;;;9.52;4.40;;;;;;;19.11;43.42;97858.53;10334814;28;20120;-57
2022/05/16 18:39:33;;;;;;;7.55;3.88;;;;;;;18.87;44.12;97855.81;10322146;28;20520;-56
2022/05/16 18:55:08;;;;;;;6.32;3.45;;;;;;;18.26;45.38;97876.09;10333806;28;20077;-57
2022/05/16 19:00:10;;;;;;;8.98;4.20;;;;;;;18.12;45.83;97879.13;10330254;28;20061;-57
2022/05/16 19:05:12;;;;;;;11.52;4.60;;;;;;;18.02;46.59;97881.16;10320205;28;20552;-57
2022/05/16 19:10:13;;;;;;;8.00;4.65;;;;;;;17.82;47.82;97883.50;10315393;28;20064;-57
2022/05/16 19:15:14;;;;;;;6.53;4.57;;;;;;;17.61;49.01;97882.28;10327487;28;20080;-57
2022/05/16 19:20:15;;;;;;;7.30;4.93;;;;;;;17.53;49.35;97893.00;10322414;28;20065;-57
2022/05/16 19:25:16;;;;;;;9.07;5.03;;;;;;;17.45;50.46;97894.94;10323972;28;20076;-57
2022/05/16 19:35:32;;;;;;;8.55;5.30;;;;;;;17.17;52.04;97895.69;10320209;28;20069;-57
2022/05/16 19:40:32;;;;;;;;;;;;;;;17.07;52.27;97899.41;10325931;28;20033;-57
2022/05/16 19:45:31;;;;;;;6.95;4.40;;;;;;;16.98;51.64;97904.88;10327926;28;19963;-58
2022/05/16 19:50:31;;;;;;;;;;;;;;;16.84;51.23;97911.34;10326180;28;20129;-58
2022/05/16 19:55:30;;;;;;;8.75;3.97;;;;;;;16.76;51.00;97904.53;10320100;28;20012;-58
2022/05/16 20:00:31;;;;;;;6.85;4.25;;;;;;;16.66;50.71;97903.88;10326486;28;20120;-58
2022/05/16 20:05:30;;;;;;;7.07;4.45;;;;;;;16.51;50.97;97900.72;10325067;28;20506;-58
2022/05/16 20:10:29;;;;;;;8.10;4.50;;;;;;;16.45;51.11;97911.31;10328043;28;20076;-58
2022/05/16 20:15:29;;;;;;;;;;;;;;;16.34;53.25;97910.69;10329271;28;20618;-58
2022/05/16 20:20:30;;;;;;;14.50;5.43;;;;;;;16.17;55.02;97907.56;10329031;28;19952;-58
2022/05/16 20:25:29;;;;;;;12.65;5.38;;;;;;;16.07;55.02;97892.06;10348215;28;20152;-57
2022/05/16 20:30:32;;;;;;;8.63;4.93;;;;;;;15.94;55.88;97893.19;10335797;28;20084;-57
2022/05/16 20:35:35;;;;;;;12.13;6.43;;;;;;;15.65;58.00;97876.28;10335788;28;20116;-58
2022/05/16 20:40:37;;;;;;;17.23;6.88;;;;;;;15.66;59.51;97893.69;10314071;28;20116;-58
2022/05/16 20:45:37;;;;;;;10.27;6.40;;;;;;;15.54;59.28;97888.72;10320360;28;20060;-57
2022/05/16 20:50:38;;;;;;;9.32;5.45;;;;;;;15.52;59.71;97900.94;10330817;28;20060;-58
2022/05/16 20:55:39;;;;;;;11.60;5.68;;;;;;;15.14;60.88;97878.13;10325502;28;20509;-58
2022/05/16 21:00:41;;;;;;;10.38;5.70;;;;;;;15.22;60.70;97915.41;10329110;28;20076;-58
2022/05/16 21:05:43;;;;;;;11.88;5.85;;;;;;;15.07;61.18;97910.47;10331817;28;20080;-58
2022/05/16 21:10:42;;;;;;;9.57;5.60;;;;;;;14.83;61.83;97904.75;10329315;28;20551;-58
2022/05/16 21:15:43;;;;;;;;;;;;;;;14.72;62.29;97917.97;10341079;28;20099;-58
2022/05/16 21:20:43;;;;;;;9.98;5.57;;;;;;;14.63;62.55;97910.22;10356145;28;19999;-58
2022/05/16 21:25:43;;;;;;;9.73;6.50;;;;;;;14.53;63.23;97912.13;10353953;28;20073;-58
2022/05/16 21:30:42;;;;;;;11.57;7.38;;;;;;;14.39;64.23;97914.91;10343896;28;20069;-57
2022/05/16 21:35:41;;;;;;;11.98;6.55;;;;;;;14.24;65.01;97915.16;10336866;28;20030;-58
2022/05/16 21:40:40;;;;;;;9.45;5.43;;;;;;;14.17;65.36;97922.19;10334863;28;20637;-58
2022/05/16 21:45:39;;;;;;;;;;;;;;;14.07;65.29;97914.47;10332103;28;20071;-58
2022/05/16 21:50:40;;;;;;;8.18;5.70;;;;;;;14.01;64.81;97917.16;10336668;28;19956;-57
2022/05/16 21:55:39;;;;;;;9.25;5.57;;;;;;;13.92;64.77;97907.72;10330439;28;20848;-57
2022/05/16 22:00:45;;;;;;;9.57;5.20;;;;;;;13.88;64.93;97916.44;10341524;28;20528;-58
2022/05/16 22:05:46;;;;;;;10.50;5.93;;;;;;;13.81;65.28;97918.25;10340360;28;20120;-58
2022/05/16 22:10:48;;;;;;;9.65;6.00;;;;;;;13.77;66.73;97927.00;10332547;28;20072;-57
2022/05/16 22:15:47;;;;;;;9.20;6.43;;;;;;;13.66;66.67;97911.47;10329191;28;20124;-57
2022/05/16 22:20:46;;;;;;;;;;;;;;;13.73;66.33;97927.94;10331205;28;20121;-58
2022/05/16 22:25:46;;;;;;;13.05;5.97;;;;;;;13.69;66.73;97941.88;10328356;28;19913;-58
2022/05/16 22:30:45;;;;;;;11.75;7.15;;;;;;;13.61;67.00;97933.25;10335353;28;20076;-58
2022/05/16 22:35:45;;;;;;;16.95;9.70;;;;;;;13.48;68.08;97933.34;10349105;28;20073;-58
2022/05/16 22:40:44;;;;;;;14.95;9.18;;;;;;;13.37;69.15;97935.19;10333642;28;20496;-58
2022/05/16 22:45:43;;;;;;;13.98;9.07;;;;;;;13.39;68.66;97927.38;10333336;28;20519;-57
2022/05/16 22:50:42;;;;;;;12.40;8.98;;;;;;;13.31;68.78;97922.22;10335172;28;20121;-58
2022/05/16 22:55:42;;;;;;;16.00;11.50;;;;;;;13.27;68.57;97923.13;10333911;28;20077;-58
2022/05/16 23:00:41;;;;;;;20.55;12.38;;;;;;;13.23;68.72;97924.03;10334131;28;20067;-58
2022/05/16 23:05:40;;;;;;;15.95;10.57;;;;;;;13.15;68.59;97924.97;10329842;28;20055;-58
2022/05/16 23:10:39;;;;;;;14.95;9.50;;;;;;;13.08;68.67;97919.81;10333316;28;20125;-57
2022/05/16 23:15:38;;;;;;;15.68;11.00;;;;;;;12.98;68.91;97916.44;10331651;28;20060;-57
2022/05/16 23:20:38;;;;;;;16.40;11.43;;;;;;;12.79;70.14;97901.81;10329341;28;20464;-58
2022/05/16 23:25:38;;;;;;;11.60;7.43;;;;;;;12.70;70.48;97906.22;10333068;28;20075;-57
2022/05/16 23:30:38;;;;;;;9.45;5.93;;;;;;;12.67;70.08;97905.38;10334557;28;20085;-58
2022/05/16 23:35:37;;;;;;;11.27;6.22;;;;;;;12.35;69.77;97850.94;10332403;28;20473;-57
2022/05/16 23:40:36;;;;;;;8.35;6.45;;;;;;;12.52;70.22;97883.78;10332556;28;20558;-57
2022/05/16 23:45:35;;;;;;;8.65;6.28;;;;;;;12.42;70.70;97892.53;10331846;28;20128;-57
2022/05/16 23:50:34;;;;;;;12.48;6.63;;;;;;;12.35;70.49;97888.22;10332481;28;20524;-58
2022/05/16 23:55:33;;;;;;;9.95;6.53;;;;;;;12.33;71.39;97882.16;10332489;28;20627;-57
